^^
Datos históricos de la estación: Murcia-Puente Tocinos
Diario Informe para Febrero 1, 2019 Unidades:  Inglés    Métrico   Ambas
Diario Semanal Mensual Anual Configurable
  Máximo: Mínimo: Media:
Temperatura: 68.2 °F 54.5 °F 62.8 °F
Punto de rocio: 50.5 °F 27.3 °F 41 °F
Humedad: 65% 24% 46%
Velocidad viento: 18.1mph 3.1mph 10mph
Racha viento: 33.4mph - -
Viento- - SW
Presión: 29.6 in 29.4 in -
Precipitación: 0 in    
Historical Graphs
 
 
Tabla de datos para Febrero 1, 2019
Hora Temperatura Punto de rocio Presión Viento Velocidad viento Racha viento Humedad Intensidad lluvia(por hora) Nubes
00:05 64 °F 43.9 °F 29.6 in SW 8.1 mph 14 mph 48% 0 in CLR
00:09 64.2 °F 43.5 °F 29.6 in SSW 9.2 mph 15.9 mph 47% 0 in CLR
00:15 64.2 °F 43.5 °F 29.6 in SSW 9.2 mph 16.1 mph 47% 0 in CLR
00:20 64.2 °F 44.1 °F 29.5 in SSW 9.7 mph 16.1 mph 48% 0 in CLR
00:25 64.2 °F 44.1 °F 29.5 in SSW 9.7 mph 13.8 mph 48% 0 in CLR
00:30 64.4 °F 44.2 °F 29.5 in SSW 9 mph 14 mph 48% 0 in CLR
00:35 64.2 °F 44.1 °F 29.5 in SSW 9 mph 13 mph 48% 0 in CLR
00:40 64.2 °F 44.1 °F 29.5 in SSW 6 mph 12 mph 48% 0 in CLR
00:45 64 °F 43.9 °F 29.5 in SW 6.2 mph 8.1 mph 48% 0 in CLR
00:50 64 °F 44.4 °F 29.5 in SSW 4.3 mph 11.5 mph 49% 0 in CLR
00:55 64.2 °F 44.1 °F 29.5 in SW 4.3 mph 17.3 mph 48% 0 in CLR
01:00 64.6 °F 45 °F 29.5 in SW 10 mph 21 mph 49% 0 in CLR
01:05 64.6 °F 45 °F 29.5 in SSW 10 mph 17.3 mph 49% 0 in CLR
01:10 64.6 °F 45 °F 29.5 in SW 11.2 mph 20.7 mph 49% 0 in CLR
01:15 64.6 °F 45 °F 29.5 in WSW 11.2 mph 16.1 mph 49% 0 in CLR
01:20 64.6 °F 45 °F 29.5 in SW 12 mph 17 mph 49% 0 in CLR
01:25 64.4 °F 44.8 °F 29.5 in WSW 11.2 mph 10.4 mph 49% 0 in CLR
01:30 64.2 °F 45.1 °F 29.5 in SSW 7.6 mph 9.2 mph 50% 0 in CLR
01:35 64.2 °F 45.1 °F 29.5 in SW 8 mph 13 mph 50% 0 in CLR
01:40 64.6 °F 45 °F 29.5 in SSW 7 mph 16 mph 49% 0 in CLR
01:45 64.9 °F 45.3 °F 29.5 in SW 7.4 mph 15 mph 49% 0 in CLR
01:50 65.1 °F 45 °F 29.5 in SSW 9.7 mph 12.7 mph 48% 0 in CLR
01:55 65.1 °F 45 °F 29.5 in SW 9.7 mph 8.1 mph 48% 0 in CLR
02:00 64.9 °F 44.8 °F 29.5 in SSW 7 mph 22 mph 48% 0 in CLR
02:05 65.1 °F 44.4 °F 29.5 in SSW 6.4 mph 15 mph 47% 0 in CLR
02:10 65.3 °F 44.4 °F 29.5 in SSW 8.7 mph 16.1 mph 47% 0 in CLR
02:15 65.5 °F 44.1 °F 29.5 in SSW 8.7 mph 16.1 mph 46% 0 in CLR
02:20 65.7 °F 43.7 °F 29.5 in SW 13 mph 17.3 mph 45% 0 in CLR
02:25 65.5 °F 43.5 °F 29.5 in SSW 13 mph 23 mph 45% 0 in CLR
02:30 65.7 °F 43.7 °F 29.5 in SSE 12.3 mph 20.7 mph 45% 0 in CLR
02:35 65.7 °F 43.2 °F 29.5 in SSW 13 mph 21 mph 44% 0 in CLR
02:40 65.7 °F 43.2 °F 29.5 in SSW 10 mph 12.7 mph 44% 0 in CLR
02:45 65.8 °F 43.3 °F 29.5 in South 10 mph 9.2 mph 44% 0 in CLR
02:50 65.8 °F 43.3 °F 29.5 in SE 8.1 mph 15 mph 44% 0 in CLR
02:55 65.8 °F 43.3 °F 29.5 in SSE 8.1 mph 15 mph 44% 0 in CLR
03:00 65.8 °F 43.3 °F 29.5 in South 9 mph 17 mph 44% 0 in CLR
03:05 65.8 °F 43.3 °F 29.5 in South 9 mph 21 mph 44% 0 in CLR
03:10 65.7 °F 43.2 °F 29.5 in South 10 mph 20 mph 44% 0 in CLR
03:15 65.7 °F 43.2 °F 29.5 in South 10.7 mph 20.7 mph 44% 0 in CLR
03:20 65.7 °F 43.2 °F 29.5 in South 14 mph 25 mph 44% 0 in CLR
03:25 65.5 °F 43.5 °F 29.5 in SSW 13.7 mph 17.3 mph 45% 0 in CLR
03:30 65.5 °F 43.5 °F 29.5 in SSW 11.8 mph 17.3 mph 45% 0 in CLR
03:35 65.3 °F 43.3 °F 29.5 in South 12 mph 17 mph 45% 0 in CLR
03:40 65.1 °F 43.2 °F 29.5 in South 10.2 mph 16.1 mph 45% 0 in CLR
03:45 65.1 °F 43.2 °F 29.5 in South 10 mph 16 mph 45% 0 in CLR
03:50 64.9 °F 43.2 °F 29.5 in SSW 9.7 mph 12.7 mph 45% 0 in CLR
03:55 64.9 °F 43.2 °F 29.5 in South 9.7 mph 18.4 mph 45% 0 in CLR
04:00 65.1 °F 43.2 °F 29.5 in SSW 12 mph 21 mph 45% 0 in CLR
04:05 65.3 °F 42.8 °F 29.5 in SW 11.4 mph 18.4 mph 44% 0 in CLR
04:10 65.3 °F 42.8 °F 29.5 in South 12.5 mph 12.7 mph 44% 0 in CLR
04:15 65.3 °F 42.8 °F 29.5 in SW 12.5 mph 17.3 mph 44% 0 in CLR
04:20 65.1 °F 43.2 °F 29.4 in SW 10.2 mph 12.7 mph 45% 0 in CLR
04:25 65.1 °F 43.2 °F 29.4 in SW 10.2 mph 17.3 mph 45% 0 in CLR
04:30 64.9 °F 43.7 °F 29.4 in SSW 11.2 mph 20.8 mph 46% 0 in CLR
04:35 64 °F 45 °F 29.4 in SSW 11.2 mph 18.4 mph 50% 0 in CLR
04:40 63 °F 46 °F 29.4 in South 13.5 mph 20.7 mph 54% 0 in CLR
04:45 62.4 °F 46.6 °F 29.4 in SSW 13.5 mph 15 mph 56% 0 in CLR
04:50 62.2 °F 46.2 °F 29.4 in South 14 mph 17 mph 56% 0 in CLR
04:55 62.2 °F 46.2 °F 29.4 in South 14 mph 11.5 mph 56% 0 in CLR
04:59 62.2 °F 45.9 °F 29.4 in SE 10 mph 18.4 mph 55% 0 in CLR
05:05 62.2 °F 45.9 °F 29.4 in SSE 10 mph 13.8 mph 55% 0 in CLR
05:10 62.4 °F 45.5 °F 29.4 in SE 9.7 mph 10.4 mph 54% 0 in CLR
05:15 62.4 °F 45.1 °F 29.4 in SSE 9 mph 13 mph 53% 0 in CLR
05:20 62.8 °F 45 °F 29.4 in SE 8.1 mph 12.7 mph 52% 0 in FEW
05:25 63 °F 45.1 °F 29.4 in SE 8.1 mph 6.9 mph 52% 0 in FEW
05:30 63.1 °F 44.8 °F 29.4 in SE 7 mph 8 mph 51% 0 in FEW
05:35 63.3 °F 45.3 °F 29.4 in ESE 6.4 mph 6.9 mph 52% 0 in FEW
05:40 63 °F 46.6 °F 29.4 in ESE 5 mph 7 mph 55% 0 in FEW
05:45 62.1 °F 46.6 °F 29.4 in East 4.3 mph 3.5 mph 57% 0 in FEW
05:50 61.5 °F 46.6 °F 29.4 in SSE 3.1 mph 5.9 mph 58% 0 in CLR
05:55 61.3 °F 46 °F 29.4 in SW 3.1 mph 9.2 mph 57% 0 in CLR
06:00 61.7 °F 45.3 °F 29.4 in South 6 mph 12 mph 55% 0 in CLR
06:05 62.1 °F 44.8 °F 29.4 in SSW 5.4 mph 10.4 mph 53% 0 in CLR
06:10 62.2 °F 45.3 °F 29.4 in South 6.9 mph 13.8 mph 54% 0 in CLR
06:15 62.2 °F 45.9 °F 29.4 in South 6.9 mph 16.1 mph 55% 0 in CLR
06:20 62.2 °F 45.9 °F 29.4 in South 10.2 mph 13.8 mph 55% 0 in BKN
06:25 62.1 °F 46.2 °F 29.4 in South 10.2 mph 16.1 mph 56% 0 in BKN
06:30 62.1 °F 46.2 °F 29.4 in South 11.2 mph 18.4 mph 56% 0 in BKN
06:35 62.1 °F 46.2 °F 29.4 in SSW 11.2 mph 15 mph 56% 0 in BKN
06:40 62.1 °F 46.2 °F 29.4 in South 10.2 mph 16.1 mph 56% 0 in BKN
06:45 62.1 °F 46.6 °F 29.4 in South 10.2 mph 16.1 mph 57% 0 in BKN
06:50 61.9 °F 46.9 °F 29.4 in SSW 10.2 mph 18.4 mph 58% 0 in FEW
06:55 61.7 °F 46.8 °F 29.4 in SW 10.2 mph 16.1 mph 58% 0 in FEW
07:00 61.5 °F 46.6 °F 29.4 in South 14 mph 21 mph 58% 0 in FEW
07:05 61.5 °F 47.1 °F 29.4 in South 13.5 mph 15.6 mph 59% 0 in FEW
07:10 61.3 °F 46.9 °F 29.4 in South 12.3 mph 12.7 mph 59% 0 in FEW
07:15 61.3 °F 46.9 °F 29.4 in SSW 12.3 mph 11.5 mph 59% 0 in FEW
07:20 61.2 °F 46.8 °F 29.4 in SSW 8.7 mph 13 mph 59% 0 in CLR
07:25 61.5 °F 46.6 °F 29.4 in SSW 8.7 mph 11.5 mph 58% 0 in CLR
07:30 61.5 °F 46.6 °F 29.4 in SSW 7.4 mph 9.2 mph 58% 0 in CLR
07:35 61.5 °F 46.8 °F 29.4 in SSW 7 mph 13 mph 58% 0 in CLR
07:40 61.7 °F 46.8 °F 29.4 in SSW 7.6 mph 11.5 mph 58% 0 in CLR
07:45 61.9 °F 46.9 °F 29.4 in SSW 7.6 mph 13.8 mph 58% 0 in CLR
07:50 61.7 °F 46.8 °F 29.4 in SW 8.1 mph 8.5 mph 58% 0 in CLR
07:55 61.7 °F 46.8 °F 29.4 in SW 8.1 mph 9.2 mph 58% 0 in CLR
08:00 61.7 °F 47.1 °F 29.4 in SSW 7 mph 14 mph 59% 0 in CLR
08:05 61.7 °F 48 °F 29.4 in South 7.4 mph 17.3 mph 61% 0 in CLR
08:10 61.5 °F 48.4 °F 29.4 in SSW 10.7 mph 14 mph 62% 0 in CLR
08:15 61.3 °F 48.2 °F 29.4 in SW 10.7 mph 9.2 mph 62% 0 in CLR
08:20 61.3 °F 48.2 °F 29.4 in South 8.7 mph 12.7 mph 62% 0 in CLR
08:25 61.2 °F 48.6 °F 29.4 in SSW 8.7 mph 10.4 mph 63% 0 in CLR
08:30 61.2 °F 48.6 °F 29.4 in SSW 7.6 mph 9.2 mph 63% 0 in CLR
08:35 61.2 °F 48.6 °F 29.4 in SSW 7.6 mph 10.4 mph 63% 0 in CLR
08:40 61.2 °F 48.6 °F 29.4 in SW 7.6 mph 11.5 mph 63% 0 in CLR
08:45 61.2 °F 48.6 °F 29.4 in SSW 7.6 mph 9.2 mph 63% 0 in CLR
08:50 61.3 °F 48.6 °F 29.4 in SW 7.6 mph 10.7 mph 63% 0 in FEW
08:55 61.3 °F 48.6 °F 29.4 in SSW 7.6 mph 8.1 mph 63% 0 in FEW
09:00 61.2 °F 48.6 °F 29.4 in SSW 7 mph 9 mph 63% 0 in FEW
09:05 61.3 °F 48.2 °F 29.4 in SW 6.4 mph 8.1 mph 62% 0 in FEW
09:10 61.3 °F 47.8 °F 29.4 in South 5.9 mph 12.3 mph 61% 0 in FEW
09:15 61.5 °F 47.5 °F 29.4 in SW 5.9 mph 11.5 mph 60% 0 in FEW
09:20 61.7 °F 47.7 °F 29.4 in SSW 6.9 mph 11.5 mph 60% 0 in FEW
09:25 61.7 °F 48 °F 29.4 in WSW 6.9 mph 10.4 mph 61% 0 in FEW
09:30 61.5 °F 48.4 °F 29.4 in WSW 8.1 mph 15 mph 62% 0 in FEW
09:35 61.3 °F 49.1 °F 29.4 in WSW 8.1 mph 10.2 mph 64% 0 in FEW
09:40 61.2 °F 48.9 °F 29.4 in SSW 7.4 mph 12.7 mph 64% 0 in FEW
09:45 61.2 °F 49.3 °F 29.4 in SW 7 mph 13 mph 65% 0 in FEW
09:50 61.3 °F 49.5 °F 29.4 in SW 6.4 mph 6.9 mph 65% 0 in -RA
09:55 61.3 °F 49.1 °F 29.4 in SSW 6.4 mph 9.2 mph 64% 0 in -RA
10:00 61.5 °F 49.3 °F 29.4 in SSW 6 mph 10 mph 64% 0 in -RA
10:05 62.1 °F 49.3 °F 29.4 in SSW 6.2 mph 8.1 mph 63% 0 in -RA
10:10 62.4 °F 49.3 °F 29.4 in SSW 5.4 mph 7.4 mph 62% 0 in -RA
10:15 63 °F 49.6 °F 29.4 in SW 5.4 mph 8.1 mph 62% 0 in -RA
10:20 63.3 °F 49.6 °F 29.4 in WSW 4.7 mph 4.6 mph 61% 0 in -RA
10:25 63.7 °F 49.5 °F 29.4 in WSW 4.7 mph 8.1 mph 60% 0 in -RA
10:30 64 °F 49.8 °F 29.4 in WSW 4.3 mph 8.1 mph 60% 0 in -RA
10:35 64.2 °F 50 °F 29.4 in SW 4.3 mph 5.8 mph 60% 0 in FEW
10:40 64.6 °F 49.8 °F 29.4 in South 4 mph 4.6 mph 59% 0 in FEW
10:45 64.9 °F 49.8 °F 29.4 in WSW 4 mph 6.9 mph 58% 0 in FEW
10:50 65.1 °F 50 °F 29.4 in South 4 mph 5.8 mph 58% 0 in FEW
10:55 65.7 °F 50 °F 29.4 in SSW 4 mph 8.1 mph 57% 0 in FEW
11:00 65.8 °F 50.2 °F 29.4 in SW 5 mph 8 mph 57% 0 in FEW
11:05 66.4 °F 50.2 °F 29.4 in SSW 4.3 mph 6.9 mph 56% 0 in FEW
11:10 66.7 °F 50.2 °F 29.4 in SW 4.3 mph 6.9 mph 55% 0 in FEW
11:15 66.9 °F 49.3 °F 29.4 in SSE 4.3 mph 11.5 mph 53% 0 in FEW
11:20 66.6 °F 49.8 °F 29.4 in SSE 6.4 mph 12.7 mph 55% 0 in FEW
11:25 66.2 °F 50 °F 29.4 in SW 6.4 mph 11.5 mph 56% 0 in FEW
11:30 66.2 °F 50 °F 29.4 in South 6.9 mph 4.6 mph 56% 0 in FEW
11:35 66.2 °F 50.5 °F 29.4 in SSW 6.9 mph 5.8 mph 57% 0 in FEW
11:40 66.6 °F 48.4 °F 29.4 in WSW 4.3 mph 15 mph 52% 0 in FEW
11:45 66.9 °F 47.7 °F 29.4 in SSW 4.3 mph 19.6 mph 50% 0 in FEW
11:50 67.5 °F 48.2 °F 29.4 in WSW 10.2 mph 16.1 mph 50% 0 in FEW
11:55 67.8 °F 48 °F 29.4 in WSW 10.2 mph 13.8 mph 49% 0 in FEW
12:00 68.2 °F 47.1 °F 29.4 in SW 9 mph 18 mph 47% 0 in FEW
12:05 68.2 °F 47.1 °F 29.4 in SSW 9.2 mph 21.9 mph 47% 0 in FEW
12:10 68.2 °F 47.1 °F 29.4 in SW 10.7 mph 11.5 mph 47% 0 in FEW
12:15 67.6 °F 49.5 °F 29.4 in WNW 10.7 mph 17.3 mph 52% 0 in FEW
12:20 65.8 °F 48.7 °F 29.4 in NW 11.4 mph 18.4 mph 54% 0 in FEW
12:25 64.8 °F 48.7 °F 29.4 in NW 11.4 mph 12.7 mph 56% 0 in FEW
12:30 64.4 °F 48.4 °F 29.4 in NNW 11.2 mph 21.9 mph 56% 0 in FEW
12:35 64.4 °F 48.4 °F 29.4 in NW 11.2 mph 8.7 mph 56% 0 in FEW
12:40 64.4 °F 48.4 °F 29.4 in NW 8.7 mph 15 mph 56% 0 in FEW
12:45 64.2 °F 48.2 °F 29.4 in NW 8.7 mph 11.5 mph 56% 0 in FEW
12:50 64.4 °F 47.8 °F 29.4 in West 8.5 mph 16.1 mph 55% 0 in FEW
12:55 64.8 °F 47.1 °F 29.4 in NW 8.5 mph 15 mph 53% 0 in FEW
13:00 64.9 °F 47.5 °F 29.4 in WNW 10 mph 16 mph 53% 0 in FEW
13:05 65.7 °F 46.6 °F 29.4 in WNW 10.7 mph 25.3 mph 50% 0 in FEW
13:10 66.4 °F 46 °F 29.4 in West 10.2 mph 16.1 mph 48% 0 in FEW
13:15 66.6 °F 45.1 °F 29.4 in WNW 10.2 mph 13.8 mph 46% 0 in FEW
13:20 66.9 °F 44.2 °F 29.4 in WNW 12.5 mph 15 mph 44% 0 in FEW
13:25 67.3 °F 44.1 °F 29.4 in WNW 12.5 mph 18.4 mph 43% 0 in FEW
13:30 67.5 °F 43 °F 29.4 in West 11.8 mph 18.4 mph 41% 0 in FEW
13:35 67.3 °F 42.8 °F 29.4 in West 11.8 mph 16.3 mph 41% 0 in FEW
13:40 67.1 °F 42.1 °F 29.4 in West 9.2 mph 14 mph 40% 0 in FEW
13:45 67.3 °F 37.9 °F 29.4 in NW 9.2 mph 17.5 mph 34% 0 in FEW
13:50 67.3 °F 36.3 °F 29.4 in WNW 11.8 mph 24.2 mph 32% 0 in FEW
13:55 67.6 °F 35.1 °F 29.4 in WSW 11.8 mph 25.3 mph 30% 0 in FEW
14:00 67.5 °F 34.2 °F 29.4 in West 16 mph 28 mph 29% 0 in FEW
14:05 67.5 °F 34.2 °F 29.4 in SW 15.6 mph 25.3 mph 29% 0 in FEW
14:10 67.3 °F 34.9 °F 29.4 in SW 15.6 mph 20.7 mph 30% 0 in FEW
14:15 67.5 °F 34.9 °F 29.4 in WSW 15.6 mph 16.1 mph 30% 0 in FEW
14:20 67.6 °F 34.2 °F 29.4 in West 11.4 mph 18.4 mph 29% 0 in FEW
14:25 67.6 °F 34.2 °F 29.4 in WSW 11.4 mph 21.9 mph 29% 0 in FEW
14:30 67.8 °F 34.3 °F 29.4 in West 13.7 mph 13.8 mph 29% 0 in FEW
14:35 68.2 °F 34.7 °F 29.4 in SW 13.7 mph 15 mph 29% 0 in FEW
14:40 67.8 °F 34.3 °F 29.4 in SSW 11.4 mph 20.7 mph 29% 0 in FEW
14:45 67.3 °F 34.9 °F 29.4 in WSW 11.4 mph 23.5 mph 30% 0 in FEW
14:50 66.7 °F 34.3 °F 29.4 in West 14.7 mph 25.3 mph 30% 0 in FEW
14:55 66.7 °F 34.3 °F 29.4 in West 14.7 mph 23 mph 30% 0 in FEW
15:00 66.9 °F 35.2 °F 29.4 in WNW 15 mph 21 mph 31% 0 in FEW
15:05 66.9 °F 35.2 °F 29.4 in West 14.7 mph 21.9 mph 31% 0 in FEW
15:10 66.7 °F 35.1 °F 29.4 in WNW 12.5 mph 25.3 mph 31% 0 in FEW
15:15 66.9 °F 35.2 °F 29.4 in SW 12.5 mph 20.7 mph 31% 0 in FEW
15:20 66.7 °F 35.1 °F 29.4 in WNW 13.5 mph 18.4 mph 31% 0 in FEW
15:25 66.7 °F 35.1 °F 29.4 in SW 13.5 mph 23 mph 31% 0 in FEW
15:30 66.4 °F 35.6 °F 29.4 in NW 14.5 mph 24.2 mph 32% 0 in FEW
15:35 66.4 °F 35.6 °F 29.4 in SW 14.5 mph 17 mph 32% 0 in FEW
15:40 66.6 °F 35.8 °F 29.4 in WNW 13.7 mph 16.1 mph 32% 0 in FEW
15:45 66.4 °F 34.9 °F 29.4 in NNW 13.7 mph 19.6 mph 31% 0 in FEW
15:50 66.4 °F 34.9 °F 29.4 in WSW 11.8 mph 25.3 mph 31% 0 in FEW
15:55 66 °F 34.5 °F 29.4 in WNW 11.8 mph 30.6 mph 31% 0 in FEW
16:00 65.5 °F 34.9 °F 29.4 in West 15 mph 31 mph 32% 0 in FEW
16:05 65.1 °F 35.2 °F 29.4 in West 14.7 mph 23 mph 33% 0 in FEW
16:10 65.1 °F 35.2 °F 29.4 in WSW 15.2 mph 24.6 mph 33% 0 in FEW
16:15 64.9 °F 35.1 °F 29.4 in West 15.2 mph 24.2 mph 33% 0 in FEW
16:20 65.1 °F 33.6 °F 29.4 in WSW 15.6 mph 31.1 mph 31% 0 in FEW
16:25 65.1 °F 32 °F 29.4 in SW 15.6 mph 25.3 mph 29% 0 in FEW
16:30 65.5 °F 28.8 °F 29.4 in SSW 16.8 mph 33.4 mph 25% 0 in FEW
16:35 65.1 °F 30.4 °F 29.4 in WSW 16.8 mph 24.2 mph 27% 0 in FEW
16:40 65.1 °F 30.4 °F 29.4 in WSW 17.8 mph 26.5 mph 27% 0 in FEW
16:45 65.1 °F 28.4 °F 29.4 in WSW 17.8 mph 27.6 mph 25% 0 in FEW
16:50 65.1 °F 27.3 °F 29.4 in WSW 14.5 mph 23 mph 24% 0 in CLR
16:55 65.1 °F 27.3 °F 29.4 in SW 14.5 mph 18.4 mph 24% 0 in CLR
17:00 65.1 °F 27.3 °F 29.4 in WSW 13 mph 26 mph 24% 0 in CLR
17:05 64.8 °F 28 °F 29.4 in South 13 mph 23 mph 25% 0 in CLR
17:10 64.8 °F 28 °F 29.4 in West 14.7 mph 24.2 mph 25% 0 in CLR
17:15 64.8 °F 28.9 °F 29.4 in West 14.7 mph 26.5 mph 26% 0 in CLR
17:20 64.6 °F 28.9 °F 29.4 in WSW 13.5 mph 13.8 mph 26% 0 in CLR
17:25 64.4 °F 29.7 °F 29.4 in West 13.5 mph 13.8 mph 27% 0 in CLR
17:30 64.2 °F 29.5 °F 29.4 in WSW 9.7 mph 18.4 mph 27% 0 in CLR
17:35 64.2 °F 29.5 °F 29.4 in West 9.7 mph 10.4 mph 27% 0 in CLR
17:40 64 °F 29.5 °F 29.4 in WSW 10 mph 19.6 mph 27% 0 in CLR
17:45 63.9 °F 30 °F 29.4 in NW 10 mph 16.1 mph 28% 0 in CLR
17:50 63.9 °F 30.9 °F 29.4 in WSW 11.4 mph 23 mph 29% 0 in CLR
17:55 63.1 °F 32.7 °F 29.4 in West 11.4 mph 26.5 mph 32% 0 in CLR
18:00 62.4 °F 32.9 °F 29.4 in West 15 mph 29 mph 33% 0 in CLR
18:05 61.9 °F 34 °F 29.4 in WNW 14.5 mph 27.6 mph 35% 0 in CLR
18:10 61.2 °F 33.3 °F 29.4 in West 16.8 mph 27.6 mph 35% 0 in CLR
18:15 60.8 °F 33.6 °F 29.4 in West 16.8 mph 26.5 mph 36% 0 in CLR
18:20 60.4 °F 32.5 °F 29.4 in WSW 18.1 mph 28.8 mph 35% 0 in CLR
18:25 60.4 °F 33.3 °F 29.4 in WSW 18.1 mph 19.6 mph 36% 0 in CLR
18:30 60.4 °F 32.5 °F 29.4 in WSW 14.7 mph 23 mph 35% 0 in CLR
18:35 60.3 °F 32.5 °F 29.4 in SW 14.7 mph 19.6 mph 35% 0 in CLR
18:40 60.3 °F 32.5 °F 29.4 in SW 13 mph 24.2 mph 35% 0 in CLR
18:45 60.3 °F 32.5 °F 29.4 in SW 13 mph 15 mph 35% 0 in CLR
18:50 60.1 °F 32.4 °F 29.4 in SW 13 mph 16.1 mph 35% 0 in CLR
18:55 60.1 °F 33.1 °F 29.4 in SW 13 mph 5.8 mph 36% 0 in CLR
19:00 59.9 °F 32.7 °F 29.4 in SW 7 mph 7 mph 36% 0 in CLR
19:05 59.7 °F 32.7 °F 29.4 in WSW 6.9 mph 10.4 mph 36% 0 in CLR
19:10 59.5 °F 32.5 °F 29.4 in South 4.7 mph 6.9 mph 36% 0 in CLR
19:15 59.5 °F 32.5 °F 29.4 in SSW 4.7 mph 6.9 mph 36% 0 in CLR
19:20 59.5 °F 32.5 °F 29.4 in SSW 4.3 mph 4.6 mph 36% 0 in CLR
19:25 59.4 °F 33.1 °F 29.4 in South 4.3 mph 5.8 mph 37% 0 in CLR
19:30 59.2 °F 33.6 °F 29.4 in SSE 3.6 mph 6.9 mph 38% 0 in CLR
19:35 58.8 °F 33.3 °F 29.4 in SE 3.6 mph 4.6 mph 38% 0 in CLR
19:40 58.6 °F 33.1 °F 29.4 in WSW 4 mph 6.9 mph 38% 0 in CLR
19:45 58.5 °F 32.9 °F 29.4 in WSW 4 mph 6.9 mph 38% 0 in CLR
19:50 58.3 °F 32.7 °F 29.4 in SSW 4.3 mph 5.8 mph 38% 0 in CLR
19:55 58.3 °F 32.7 °F 29.4 in SSW 4.3 mph 6.9 mph 38% 0 in CLR
20:00 58.5 °F 32.9 °F 29.4 in SSW 5 mph 6 mph 38% 0 in CLR
20:05 58.6 °F 32.4 °F 29.4 in WSW 4.7 mph 8.1 mph 37% 0 in CLR
20:10 59 °F 32.7 °F 29.4 in WSW 4.3 mph 8.1 mph 37% 0 in CLR
20:15 59 °F 32.7 °F 29.4 in SW 4.3 mph 6.9 mph 37% 0 in CLR
20:20 59.2 °F 32.9 °F 29.4 in WSW 4.7 mph 6.2 mph 37% 0 in CLR
20:25 59.5 °F 32.5 °F 29.4 in WSW 4.7 mph 12.7 mph 36% 0 in CLR
20:30 59.5 °F 34.5 °F 29.4 in West 8.5 mph 26.5 mph 39% 0 in CLR
20:35 59.2 °F 35.4 °F 29.4 in WSW 8.5 mph 16.1 mph 41% 0 in CLR
20:40 59 °F 35.2 °F 29.4 in West 14.7 mph 20.7 mph 41% 0 in CLR
20:45 58.8 °F 35.2 °F 29.4 in West 14.7 mph 20.7 mph 41% 0 in CLR
20:50 58.8 °F 35.8 °F 29.4 in West 13.5 mph 17.3 mph 42% 0 in CLR
20:55 58.8 °F 35.8 °F 29.4 in NW 13.5 mph 24.2 mph 42% 0 in CLR
21:00 58.5 °F 36.7 °F 29.4 in West 15 mph 28 mph 44% 0 in CLR
21:05 57.9 °F 36.7 °F 29.4 in WNW 14.7 mph 20.7 mph 45% 0 in CLR
21:10 57.6 °F 36.9 °F 29.4 in NW 14.7 mph 20.7 mph 46% 0 in CLR
21:15 57.4 °F 37.2 °F 29.4 in WSW 14.7 mph 20.7 mph 47% 0 in CLR
21:20 57 °F 37.6 °F 29.4 in WNW 13.7 mph 18.4 mph 48% 0 in CLR
21:25 56.7 °F 37.2 °F 29.4 in WNW 13.7 mph 15 mph 48% 0 in CLR
21:30 56.5 °F 37.6 °F 29.4 in West 11.2 mph 16.1 mph 49% 0 in CLR
21:35 56.3 °F 37.9 °F 29.4 in WNW 11.2 mph 17.3 mph 50% 0 in CLR
21:40 55.9 °F 38.1 °F 29.4 in WNW 10.7 mph 15 mph 51% 0 in CLR
21:45 55.6 °F 38.1 °F 29.4 in West 10.7 mph 13.8 mph 52% 0 in CLR
21:50 55.4 °F 38.1 °F 29.5 in West 9.2 mph 16.1 mph 52% 0 in CLR
21:55 55.4 °F 38.1 °F 29.5 in West 9.2 mph 17.3 mph 52% 0 in CLR
22:00 55.4 °F 38.1 °F 29.5 in West 10 mph 17 mph 52% 0 in CLR
22:05 55.6 °F 37.8 °F 29.5 in WSW 10 mph 16.1 mph 51% 0 in CLR
22:10 55.4 °F 37.6 °F 29.5 in WSW 9.7 mph 20.7 mph 51% 0 in CLR
22:15 55.4 °F 37 °F 29.5 in SW 9.7 mph 24.2 mph 50% 0 in CLR
22:20 55.2 °F 36.3 °F 29.5 in WSW 13.5 mph 21.9 mph 49% 0 in CLR
22:25 55.2 °F 36 °F 29.5 in WSW 13.5 mph 18.4 mph 48% 0 in CLR
22:30 55 °F 35.8 °F 29.5 in West 13.5 mph 20.7 mph 48% 0 in CLR
22:35 55 °F 35.8 °F 29.5 in West 13.5 mph 21.9 mph 48% 0 in CLR
22:40 55 °F 35.8 °F 29.5 in WSW 13 mph 16.1 mph 48% 0 in CLR
22:45 55 °F 35.8 °F 29.5 in WSW 13 mph 16.1 mph 48% 0 in CLR
22:50 54.9 °F 35.4 °F 29.5 in SW 10.7 mph 13.8 mph 48% 0 in CLR
22:55 54.9 °F 35.4 °F 29.5 in WSW 10.7 mph 13 mph 48% 0 in CLR
23:00 54.9 °F 35.1 °F 29.5 in WSW 10 mph 19 mph 47% 0 in CLR
23:05 54.9 °F 34.5 °F 29.5 in WSW 10 mph 15 mph 46% 0 in CLR
23:10 54.9 °F 34 °F 29.5 in SW 10.2 mph 17.3 mph 45% 0 in CLR
23:15 54.9 °F 34 °F 29.5 in SW 10.2 mph 13.8 mph 45% 0 in CLR
23:20 54.7 °F 34.3 °F 29.5 in SW 9.7 mph 12.3 mph 46% 0 in CLR
23:25 54.5 °F 33.6 °F 29.5 in SW 9.7 mph 12.7 mph 45% 0 in CLR
23:30 54.7 °F 33.3 °F 29.5 in SSW 8.7 mph 15 mph 44% 0 in CLR
23:35 54.9 °F 33.3 °F 29.5 in SW 8.7 mph 13.8 mph 44% 0 in CLR
23:40 55 °F 32.4 °F 29.5 in SW 10 mph 17.3 mph 42% 0 in CLR
23:45 55 °F 32.4 °F 29.5 in West 10 mph 13.5 mph 42% 0 in CLR
23:50 55.2 °F 33.1 °F 29.5 in WSW 11.4 mph 11.5 mph 43% 0 in CLR
23:55 55.2 °F 32.5 °F 29.5 in SSW 11.4 mph 21.9 mph 42% 0 in CLR
Murcia-Puente Tocinos, España
Compliments of Weather Underground - 2.75 mb

La estación de MeteoMurcia.com, publica sus datos en los siguientes proyectos:

Weather Underground PWS IMURCIAP2 Meteoclimatic www.awekas.at

W3Counter
Web Analytics